Time;durP1;ratioP1;P1;durP2;ratioP2;P2;SDS_P1;SDS_P2;PMS_P1;PMS_P2;Temp;Humidity;BMP_temperature;BMP_pressure;BME280_temperature;BME280_humidity;BME280_pressure;Samples;Min_cycle;Max_cycle;Signal;HPM_P1;HPM_P2
2023/07/22 00:00:57;;;;;;;;;;;;;;;11.86;100.00;101503.13;5030273;28;19987;-73
2023/07/22 00:03:23;;;;;;;;;;;;;;;11.86;100.00;101500.47;5033682;28;20051;-74
2023/07/22 00:05:48;;;;;;;;;;;;;;;11.85;100.00;101504.94;5016356;28;20016;-74
2023/07/22 00:08:13;;;;;;;;;;;;;;;11.88;100.00;101512.66;5033885;28;20351;-73
2023/07/22 00:10:42;;;;;;;;;;;;;;;11.87;100.00;101507.47;5034150;28;19967;-73
2023/07/22 00:13:08;;;;;;;;;;;;;;;11.83;100.00;101501.56;5034135;28;19913;-73
2023/07/22 00:15:33;;;;;;;;;;;;;;;11.76;100.00;101490.59;5034256;28;19944;-73
2023/07/22 00:18:01;;;;;;;;;;;;;;;11.69;100.00;101505.41;5034453;28;20269;-74
2023/07/22 00:20:27;;;;;;;;;;;;;;;11.63;100.00;101496.13;5017773;28;20016;-73
2023/07/22 00:22:52;;;;;;;;;;;;;;;11.62;100.00;101485.59;5033565;28;19917;-73
2023/07/22 00:25:18;;;;;;;;;;;;;;;11.58;100.00;101495.63;5033967;28;19928;-74
2023/07/22 00:27:43;;;;;;;;;;;;;;;11.53;100.00;101489.03;5033182;28;19921;-73
2023/07/22 00:30:08;;;;;;;;;;;;;;;11.50;100.00;101489.28;5033620;28;19920;-73
2023/07/22 00:32:34;;;;;;;;;;;;;;;11.49;100.00;101485.75;5015730;28;20050;-75
2023/07/22 00:34:59;;;;;;;;;;;;;;;11.47;100.00;101483.22;5033712;28;20077;-74
2023/07/22 00:37:25;;;;;;;;;;;;;;;11.47;100.00;101491.22;5033868;28;20053;-73
2023/07/22 00:39:50;;;;;;;;;;;;;;;11.42;100.00;101488.13;5033078;28;19917;-72
2023/07/22 00:42:15;;;;;;;;;;;;;;;11.40;100.00;101492.72;5033493;28;19916;-74
2023/07/22 00:44:41;;;;;;;;;;;;;;;11.38;100.00;101488.50;5033263;28;19925;-73
2023/07/22 00:47:06;;;;;;;;;;;;;;;11.35;100.00;101491.44;5033338;28;19929;-73
2023/07/22 00:49:31;;;;;;;;;;;;;;;11.34;100.00;101490.56;5015427;28;19917;-73
2023/07/22 00:52:00;;;;;;;;;;;;;;;11.33;100.00;101488.88;5032961;28;20011;-73
2023/07/22 00:54:25;;;;;;;;;;;;;;;11.32;100.00;101479.19;5033377;28;19917;-74
2023/07/22 00:56:51;;;;;;;;;;;;;;;11.33;100.00;101478.25;5032910;28;19917;-74
2023/07/22 00:59:16;;;;;;;;;;;;;;;11.34;100.00;101474.56;5032926;28;19929;-74
2023/07/22 01:01:41;;;;;;;;;;;;;;;11.35;100.00;101478.94;5032977;28;20302;-73
2023/07/22 01:04:07;;;;;;;;;;;;;;;11.33;100.00;101472.91;5031356;28;19984;-73
2023/07/22 01:06:34;;;;;;;;;;;;;;;11.30;100.00;101478.50;5033011;28;19924;-73
2023/07/22 01:08:59;;;;;;;;;;;;;;;11.26;100.00;101471.72;5032595;28;19956;-73
2023/07/22 01:11:25;;;;;;;;;;;;;;;11.22;100.00;101479.09;5032775;28;20047;-74
2023/07/22 01:13:51;;;;;;;;;;;;;;;11.23;100.00;101475.47;5031968;28;19917;-73
2023/07/22 01:16:17;;;;;;;;;;;;;;;11.24;100.00;101468.31;5033051;28;19913;-73
2023/07/22 01:18:42;;;;;;;;;;;;;;;11.24;100.00;101463.88;5031072;28;19947;-73
2023/07/22 01:21:08;;;;;;;;;;;;;;;11.26;100.00;101466.41;5032347;28;19959;-73
2023/07/22 01:23:33;;;;;;;;;;;;;;;11.25;100.00;101459.38;5032671;28;19978;-73
2023/07/22 01:25:59;;;;;;;;;;;;;;;11.27;100.00;101454.75;5032344;28;19913;-73
2023/07/22 01:28:24;;;;;;;;;;;;;;;11.28;100.00;101451.13;5032446;28;19928;-73
2023/07/22 01:30:49;;;;;;;;;;;;;;;11.27;100.00;101447.63;5032658;28;19917;-74
2023/07/22 01:33:14;;;;;;;;;;;;;;;11.29;100.00;101453.66;5032472;28;19917;-74
2023/07/22 01:35:40;;;;;;;;;;;;;;;11.29;100.00;101445.66;5014431;28;19913;-74
2023/07/22 01:38:05;;;;;;;;;;;;;;;11.26;100.00;101450.41;5032394;28;20331;-73
2023/07/22 01:40:31;;;;;;;;;;;;;;;11.27;100.00;101450.28;5032215;28;19992;-74
2023/07/22 01:42:56;;;;;;;;;;;;;;;11.27;100.00;101449.41;5032005;28;19964;-74
2023/07/22 01:45:21;;;;;;;;;;;;;;;11.25;100.00;101446.88;5032402;28;19924;-74
2023/07/22 01:47:46;;;;;;;;;;;;;;;11.24;100.00;101442.56;5032458;28;19971;-73
2023/07/22 01:50:12;;;;;;;;;;;;;;;11.24;100.00;101441.69;5032365;28;19917;-73
2023/07/22 01:52:37;;;;;;;;;;;;;;;11.23;100.00;101440.84;5032250;28;19952;-73
2023/07/22 01:55:05;;;;;;;;;;;;;;;11.22;100.00;101441.81;5031620;28;20250;-73
2023/07/22 01:57:30;;;;;;;;;;;;;;;11.21;100.00;101441.94;5031985;28;19924;-74
2023/07/22 01:59:56;;;;;;;;;;;;;;;11.20;100.00;101441.09;5032375;28;20252;-73
2023/07/22 02:02:21;;;;;;;;;;;;;;;11.20;100.00;101440.28;5032210;28;20392;-73
2023/07/22 02:04:46;;;;;;;;;;;;;;;11.19;100.00;101434.09;5032410;28;19917;-74
2023/07/22 02:07:11;;;;;;;;;;;;;;;11.18;100.00;101431.56;5032443;28;20337;-73
2023/07/22 02:09:37;;;;;;;;;;;;;;;11.19;100.00;101435.91;5031615;28;20367;-74
2023/07/22 02:12:02;;;;;;;;;;;;;;;11.19;100.00;101434.09;5031471;28;20302;-73
2023/07/22 02:14:28;;;;;;;;;;;;;;;11.18;100.00;101432.41;5031499;28;19917;-73
2023/07/22 02:16:53;;;;;;;;;;;;;;;11.19;100.00;101434.09;5013331;28;19921;-73
2023/07/22 02:19:18;;;;;;;;;;;;;;;11.19;100.00;101428.75;5031218;28;19960;-73
2023/07/22 02:21:43;;;;;;;;;;;;;;;11.18;100.00;101432.41;5031379;28;20372;-73
2023/07/22 02:24:09;;;;;;;;;;;;;;;11.15;100.00;101430.00;5031066;28;19917;-73
2023/07/22 02:26:34;;;;;;;;;;;;;;;11.17;100.00;101433.38;5031181;28;20008;-74
2023/07/22 02:28:59;;;;;;;;;;;;;;;11.18;100.00;101427.09;5031170;28;19924;-73
2023/07/22 02:31:25;;;;;;;;;;;;;;;11.18;100.00;101426.22;5031135;28;19918;-73
2023/07/22 02:33:50;;;;;;;;;;;;;;;11.18;100.00;101431.56;5013155;28;19913;-73
2023/07/22 02:36:15;;;;;;;;;;;;;;;11.18;100.00;101427.09;5031209;28;19917;-73
2023/07/22 02:38:41;;;;;;;;;;;;;;;11.18;100.00;101413.78;5030679;28;20015;-73
2023/07/22 02:41:07;;;;;;;;;;;;;;;11.19;100.00;101403.94;5031464;28;20250;-74
2023/07/22 02:43:36;;;;;;;;;;;;;;;11.19;100.00;101410.13;5030949;28;20218;-74
2023/07/22 02:46:02;;;;;;;;;;;;;;;11.20;100.00;101405.66;5031105;28;19917;-74
2023/07/22 02:48:27;;;;;;;;;;;;;;;11.22;100.00;101409.03;5030651;28;20401;-73
2023/07/22 02:50:53;;;;;;;;;;;;;;;11.25;100.00;101409.59;5030932;28;20031;-74
2023/07/22 02:53:19;;;;;;;;;;;;;;;11.29;100.00;101407.53;5030743;28;19913;-74
2023/07/22 02:55:46;;;;;;;;;;;;;;;11.36;100.00;101407.84;5030845;28;19917;-74
2023/07/22 02:58:11;;;;;;;;;;;;;;;11.40;100.00;101406.63;5030780;28;19971;-73
2023/07/22 03:00:36;;;;;;;;;;;;;;;11.43;100.00;101411.69;5030846;28;19925;-74
2023/07/22 03:03:02;;;;;;;;;;;;;;;11.47;100.00;101403.28;5031225;28;19913;-74
2023/07/22 03:05:28;;;;;;;;;;;;;;;11.51;100.00;101416.34;5030884;28;19917;-73
2023/07/22 03:07:53;;;;;;;;;;;;;;;11.51;100.00;101411.03;5030891;28;19920;-74
2023/07/22 03:10:19;;;;;;;;;;;;;;;11.50;100.00;101412.00;5030526;28;19917;-74
2023/07/22 03:12:44;;;;;;;;;;;;;;;11.47;100.00;101410.44;5030663;28;19921;-74
2023/07/22 03:15:09;;;;;;;;;;;;;;;11.43;100.00;101412.50;5031015;28;19917;-74
2023/07/22 03:17:36;;;;;;;;;;;;;;;11.39;100.00;101405.78;5030874;28;20020;-74
2023/07/22 03:20:05;;;;;;;;;;;;;;;11.36;100.00;101410.50;5030542;28;19969;-74
2023/07/22 03:22:31;;;;;;;;;;;;;;;11.31;100.00;101413.56;5030812;28;19939;-74
2023/07/22 03:24:56;;;;;;;;;;;;;;;11.27;100.00;101412.13;5030613;28;19917;-74
2023/07/22 03:27:21;;;;;;;;;;;;;;;11.25;100.00;101419.41;5030767;28;19927;-74
2023/07/22 03:29:47;;;;;;;;;;;;;;;11.21;100.00;101416.19;5030624;28;20012;-74
2023/07/22 03:32:12;;;;;;;;;;;;;;;11.20;100.00;101417.13;5030728;28;20315;-74
2023/07/22 03:34:37;;;;;;;;;;;;;;;11.19;100.00;101415.44;5029180;28;20146;-73
2023/07/22 03:37:02;;;;;;;;;;;;;;;11.22;100.00;101433.00;5032195;28;20022;-73
2023/07/22 03:39:27;;;;;;;;;;;;;;;11.22;100.00;101431.16;5034630;28;19939;-73
2023/07/22 03:41:53;;;;;;;;;;;;;;;11.24;100.00;101428.38;5034639;28;19917;-73
2023/07/22 03:44:18;;;;;;;;;;;;;;;11.27;100.00;101425.44;5034117;28;19917;-73
2023/07/22 03:46:43;;;;;;;;;;;;;;;11.30;100.00;101425.22;5034449;28;19921;-73
2023/07/22 03:49:08;;;;;;;;;;;;;;;11.30;100.00;101425.22;5034438;28;19967;-73
2023/07/22 03:51:34;;;;;;;;;;;;;;;11.32;100.00;101423.25;5016563;28;19924;-73
2023/07/22 03:53:59;;;;;;;;;;;;;;;11.33;100.00;101416.97;5034880;28;19929;-73
2023/07/22 03:56:24;;;;;;;;;;;;;;;11.35;100.00;101419.50;5034450;28;19953;-73
2023/07/22 03:58:50;;;;;;;;;;;;;;;11.37;100.00;101425.53;5034644;28;19917;-73
2023/07/22 04:01:15;;;;;;;;;;;;;;;11.38;100.00;101419.22;5016315;28;19947;-73
2023/07/22 04:03:41;;;;;;;;;;;;;;;11.39;100.00;101419.09;5034758;28;19924;-73
2023/07/22 04:06:06;;;;;;;;;;;;;;;11.42;100.00;101417.97;5016621;28;19949;-73
2023/07/22 04:08:31;;;;;;;;;;;;;;;11.47;100.00;101421.09;5016538;28;19924;-72
2023/07/22 04:10:57;;;;;;;;;;;;;;;11.51;100.00;101421.69;5034386;28;20332;-73
2023/07/22 04:13:23;;;;;;;;;;;;;;;11.56;100.00;101414.97;5016423;28;19935;-73
2023/07/22 04:15:48;;;;;;;;;;;;;;;11.61;100.00;101415.44;5015936;28;19912;-73
2023/07/22 04:18:17;;;;;;;;;;;;;;;11.66;100.00;101417.72;4999663;28;19929;-74
2023/07/22 04:20:42;;;;;;;;;;;;;;;11.72;100.00;101406.53;5034035;28;19913;-73
2023/07/22 04:23:07;;;;;;;;;;;;;;;11.79;100.00;101405.03;5034003;28;19913;-73
2023/07/22 04:25:33;;;;;;;;;;;;;;;11.87;100.00;101412.34;5033651;28;19940;-73
2023/07/22 04:27:58;;;;;;;;;;;;;;;11.94;100.00;101410.88;5033873;28;19967;-73
2023/07/22 04:30:24;;;;;;;;;;;;;;;12.03;100.00;101413.69;5033893;28;20269;-73
2023/07/22 04:32:50;;;;;;;;;;;;;;;12.08;100.00;101416.81;5033591;28;19917;-73
2023/07/22 04:35:17;;;;;;;;;;;;;;;12.13;100.00;101417.25;5033606;28;20022;-73
2023/07/22 04:37:42;;;;;;;;;;;;;;;12.17;100.00;101416.00;5033889;28;19964;-73
2023/07/22 04:40:09;;;;;;;;;;;;;;;12.23;100.00;101411.94;5034062;28;19968;-73
2023/07/22 04:42:34;;;;;;;;;;;;;;;12.30;100.00;101411.28;5033895;28;19928;-73
2023/07/22 04:44:59;;;;;;;;;;;;;;;12.38;100.00;101417.75;5034085;28;19921;-73
2023/07/22 04:47:24;;;;;;;;;;;;;;;12.44;100.00;101406.53;5033832;28;19917;-73
2023/07/22 04:49:50;;;;;;;;;;;;;;;12.52;100.00;101420.00;5033823;28;19971;-74
2023/07/22 04:52:15;;;;;;;;;;;;;;;12.60;100.00;101412.16;5015690;28;20018;-73
2023/07/22 04:54:41;;;;;;;;;;;;;;;12.70;100.00;101410.38;5034143;28;19933;-73
2023/07/22 04:57:07;;;;;;;;;;;;;;;12.79;100.00;101408.66;5034494;28;19917;-74
2023/07/22 04:59:32;;;;;;;;;;;;;;;12.89;100.00;101403.34;5033965;28;19913;-74
2023/07/22 05:01:57;;;;;;;;;;;;;;;12.98;100.00;101407.81;5033249;28;19917;-74
2023/07/22 05:04:22;;;;;;;;;;;;;;;13.05;100.00;101413.47;5033258;28;19916;-74
2023/07/22 05:06:48;;;;;;;;;;;;;;;13.13;100.00;101410.06;5033415;28;19913;-74
2023/07/22 05:09:13;;;;;;;;;;;;;;;13.20;100.00;101404.00;5033017;28;19960;-73
2023/07/22 05:11:38;;;;;;;;;;;;;;;13.28;100.00;101397.94;5033204;28;20276;-74
2023/07/22 05:14:03;;;;;;;;;;;;;;;13.35;100.00;101401.78;5034037;28;20000;-74
2023/07/22 05:16:28;;;;;;;;;;;;;;;13.43;100.00;101397.53;5033447;28;19921;-73
2023/07/22 05:18:54;;;;;;;;;;;;;;;13.51;100.00;101408.34;5033167;28;19966;-74
2023/07/22 05:21:19;;;;;;;;;;;;;;;13.57;100.00;101408.63;5033420;28;20011;-75
2023/07/22 05:23:44;;;;;;;;;;;;;;;13.64;100.00;101402.69;5032882;28;20007;-73
2023/07/22 05:26:09;;;;;;;;;;;;;;;13.71;100.00;101401.97;5032720;28;20376;-74
2023/07/22 05:28:35;;;;;;;;;;;;;;;13.79;100.00;101401.22;5033226;28;19935;-73
2023/07/22 05:31:01;;;;;;;;;;;;;;;13.86;100.00;101401.50;5032929;28;20329;-74
2023/07/22 05:33:26;;;;;;;;;;;;;;;13.96;100.00;101401.44;5032772;28;20287;-73
2023/07/22 05:35:51;;;;;;;;;;;;;;;14.06;100.00;101397.75;5032671;28;20051;-74
2023/07/22 05:38:16;;;;;;;;;;;;;;;14.17;100.00;101398.56;5032219;28;19917;-73
2023/07/22 05:40:43;;;;;;;;;;;;;;;14.27;100.00;101399.31;5032520;28;19924;-74
2023/07/22 05:43:08;;;;;;;;;;;;;;;14.36;100.00;101398.44;5032254;28;20023;-74
2023/07/22 05:45:33;;;;;;;;;;;;;;;14.45;100.00;101405.56;5032763;28;20020;-73
2023/07/22 05:47:58;;;;;;;;;;;;;;;14.54;100.00;101398.47;5032307;28;19997;-74
2023/07/22 05:50:24;;;;;;;;;;;;;;;14.62;100.00;101398.56;5032132;28;19970;-73
2023/07/22 05:52:49;;;;;;;;;;;;;;;14.72;100.00;101398.50;5032455;28;20306;-73
2023/07/22 05:55:15;;;;;;;;;;;;;;;14.81;100.00;101396.75;5032226;28;19962;-73
2023/07/22 05:57:41;;;;;;;;;;;;;;;14.89;100.00;101390.63;5032534;28;19924;-74
2023/07/22 06:00:08;;;;;;;;;;;;;;;14.94;100.00;101385.63;5031635;28;20328;-74
2023/07/22 06:02:33;;;;;;;;;;;;;;;14.96;100.00;101397.88;5032031;28;20340;-73
2023/07/22 06:04:58;;;;;;;;;;;;;;;14.99;100.00;101396.72;5032145;28;19928;-73
2023/07/22 06:07:24;;;;;;;;;;;;;;;15.05;100.00;101384.53;5031864;28;19932;-73
2023/07/22 06:09:49;;;;;;;;;;;;;;;15.12;100.00;101390.97;5032062;28;19932;-73
2023/07/22 06:12:14;;;;;;;;;;;;;;;15.19;100.00;101385.84;5031808;28;20031;-73
2023/07/22 06:14:39;;;;;;;;;;;;;;;15.28;100.00;101387.56;5014333;28;19978;-73
2023/07/22 06:17:05;;;;;;;;;;;;;;;15.34;100.00;101385.09;5031741;28;20250;-74
2023/07/22 06:19:30;;;;;;;;;;;;;;;15.40;100.00;101390.84;5031927;28;19917;-73
2023/07/22 06:21:55;;;;;;;;;;;;;;;15.44;100.00;101389.53;5032043;28;20004;-73
2023/07/22 06:24:21;;;;;;;;;;;;;;;15.49;100.00;101382.66;5031725;28;20281;-74
2023/07/22 06:26:46;;;;;;;;;;;;;;;15.57;100.00;101378.34;5031731;28;20364;-73
2023/07/22 06:29:11;;;;;;;;;;;;;;;15.67;100.00;101381.78;5031854;28;19924;-73
2023/07/22 06:31:36;;;;;;;;;;;;;;;15.73;100.00;101385.66;5031797;28;20074;-74
2023/07/22 06:34:03;;;;;;;;;;;;;;;15.77;100.00;101373.63;5031640;28;19924;-74
2023/07/22 06:36:28;;;;;;;;;;;;;;;15.79;100.00;101374.31;5031380;28;19937;-73
2023/07/22 06:38:54;;;;;;;;;;;;;;;15.86;100.00;101378.06;5031468;28;19938;-73
2023/07/22 06:41:19;;;;;;;;;;;;;;;15.92;100.00;101374.72;5013465;28;19999;-73
2023/07/22 06:43:45;;;;;;;;;;;;;;;15.97;100.00;101375.09;5031334;28;19993;-73
2023/07/22 06:46:10;;;;;;;;;;;;;;;15.96;100.00;101377.91;5031185;28;19956;-73
2023/07/22 06:48:35;;;;;;;;;;;;;;;16.07;100.00;101376.81;5031552;28;19983;-73
2023/07/22 06:51:00;;;;;;;;;;;;;;;16.14;100.00;101377.84;5030880;28;19924;-72
2023/07/22 06:53:26;;;;;;;;;;;;;;;16.25;100.00;101379.38;5030637;28;19971;-73
2023/07/22 06:55:51;;;;;;;;;;;;;;;16.36;100.00;101381.75;5030538;28;19916;-73
2023/07/22 06:58:17;;;;;;;;;;;;;;;16.40;100.00;101375.88;5030674;28;20004;-73
2023/07/22 07:00:42;;;;;;;;;;;;;;;16.43;100.00;101376.56;5030958;28;20025;-73
2023/07/22 07:03:07;;;;;;;;;;;;;;;16.39;100.00;101382.25;5030680;28;19917;-73
2023/07/22 07:05:34;;;;;;;;;;;;;;;16.36;100.00;101384.41;5030185;28;20007;-73
2023/07/22 07:07:59;;;;;;;;;;;;;;;16.38;100.00;101382.44;5030711;28;20364;-72
2023/07/22 07:10:24;;;;;;;;;;;;;;;16.40;100.00;101378.56;5029861;28;19917;-73
2023/07/22 07:12:50;;;;;;;;;;;;;;;16.40;100.00;101385.78;5030244;28;19917;-73
2023/07/22 07:15:15;;;;;;;;;;;;;;;16.39;100.00;101384.09;5031194;28;19982;-73
2023/07/22 07:17:40;;;;;;;;;;;;;;;16.39;100.00;101382.25;5030982;28;19967;-73
2023/07/22 07:20:06;;;;;;;;;;;;;;;16.38;100.00;101391.31;5031035;28;19917;-76
2023/07/22 07:22:31;;;;;;;;;;;;;;;16.31;100.00;101378.72;5030661;28;19917;-75
2023/07/22 07:24:56;;;;;;;;;;;;;;;16.24;100.00;101373.16;5031050;28;19921;-72
2023/07/22 07:27:21;;;;;;;;;;;;;;;16.26;100.00;101376.53;5030797;28;20008;-73
2023/07/22 07:29:46;;;;;;;;;;;;;;;16.35;100.00;101374.72;5030966;28;19924;-73
2023/07/22 07:32:12;;;;;;;;;;;;;;;16.45;100.00;101372.72;5030766;28;19917;-73
2023/07/22 07:34:37;;;;;;;;;;;;;;;16.59;100.00;101370.41;5030738;28;19936;-74
2023/07/22 07:37:02;;;;;;;;;;;;;;;16.73;100.00;101367.03;5030762;28;20003;-74
2023/07/22 07:39:28;;;;;;;;;;;;;;;16.90;100.00;101366.06;5030385;28;19953;-74
2023/07/22 07:41:54;;;;;;;;;;;;;;;17.10;100.00;101373.78;5030551;28;19943;-75
2023/07/22 07:44:19;;;;;;;;;;;;;;;17.41;100.00;101367.72;5012789;28;20353;-75
2023/07/22 07:46:44;;;;;;;;;;;;;;;17.78;100.00;101371.66;5031156;28;20258;-75
2023/07/22 07:49:09;;;;;;;;;;;;;;;18.05;100.00;101369.53;5012905;28;19947;-75
2023/07/22 07:51:35;;;;;;;;;;;;;;;18.19;100.00;101362.56;5030343;28;19992;-76
2023/07/22 07:54:00;;;;;;;;;;;;;;;18.37;100.00;101375.78;5030243;28;19913;-72
2023/07/22 07:56:25;;;;;;;;;;;;;;;18.29;100.00;101372.09;5030645;28;19937;-72
2023/07/22 07:58:52;;;;;;;;;;;;;;;18.33;100.00;101367.19;5031087;28;19921;-72
2023/07/22 08:01:17;;;;;;;;;;;;;;;18.20;100.00;101362.41;5030596;28;19920;-72
2023/07/22 08:03:43;;;;;;;;;;;;;;;17.95;100.00;101367.88;5030550;28;19921;-71
2023/07/22 08:06:12;;;;;;;;;;;;;;;17.70;100.00;101372.50;5030481;28;19994;-71
2023/07/22 08:08:38;;;;;;;;;;;;;;;17.38;100.00;101368.88;5030580;28;19919;-72
2023/07/22 08:11:09;;;;;;;;;;;;;;;17.08;100.00;101370.44;5030251;28;20020;-71
2023/07/22 08:13:35;;;;;;;;;;;;;;;16.65;100.00;101370.56;5030348;28;19913;-73
2023/07/22 08:16:05;;;;;;;;;;;;;;;16.36;100.00;101363.81;5030584;28;20328;-71
2023/07/22 08:18:30;;;;;;;;;;;;;;;16.23;100.00;101366.13;5030024;28;19937;-71
2023/07/22 08:20:56;;;;;;;;;;;;;;;16.19;100.00;101372.81;5030514;28;19924;-71
2023/07/22 08:23:21;;;;;;;;;;;;;;;16.16;100.00;101375.81;5032400;28;20348;-71
2023/07/22 08:25:46;;;;;;;;;;;;;;;16.10;100.00;101376.47;5033957;28;19913;-72
2023/07/22 08:28:12;;;;;;;;;;;;;;;16.02;100.00;101378.13;5033926;28;20004;-71
2023/07/22 08:30:39;;;;;;;;;;;;;;;15.97;100.00;101382.28;5033587;28;19975;-72
2023/07/22 08:33:05;;;;;;;;;;;;;;;15.88;100.00;101386.78;5015972;28;19917;-73
2023/07/22 08:35:30;;;;;;;;;;;;;;;15.75;100.00;101379.16;5033623;28;19955;-73
2023/07/22 08:37:55;;;;;;;;;;;;;;;15.62;100.00;101382.25;5033546;28;20019;-72
2023/07/22 08:40:20;;;;;;;;;;;;;;;15.54;100.00;101366.13;5033862;28;20285;-71
2023/07/22 08:42:48;;;;;;;;;;;;;;;15.52;100.00;101365.44;5033260;28;19921;-71
2023/07/22 08:45:13;;;;;;;;;;;;;;;15.60;100.00;101373.53;5033949;28;19943;-72
2023/07/22 08:47:41;;;;;;;;;;;;;;;15.83;100.00;101364.97;5033663;28;19928;-72
2023/07/22 08:50:07;;;;;;;;;;;;;;;16.24;100.00;101373.16;5033143;28;19913;-71
2023/07/22 08:52:33;;;;;;;;;;;;;;;16.71;100.00;101364.50;5033325;28;19958;-72
2023/07/22 08:54:58;;;;;;;;;;;;;;;16.91;100.00;101367.75;5033501;28;19921;-73
2023/07/22 08:57:24;;;;;;;;;;;;;;;16.92;100.00;101369.41;5033132;28;20292;-73
2023/07/22 08:59:50;;;;;;;;;;;;;;;16.85;100.00;101368.38;5033480;28;20231;-72
2023/07/22 09:02:16;;;;;;;;;;;;;;;16.92;100.00;101364.03;5033178;28;19917;-72
2023/07/22 09:04:42;;;;;;;;;;;;;;;17.09;100.00;101372.09;5033660;28;19921;-72
2023/07/22 09:07:07;;;;;;;;;;;;;;;17.12;100.00;101371.75;5033264;28;19917;-73
2023/07/22 09:09:34;;;;;;;;;;;;;;;17.24;100.00;101365.03;5032981;28;20000;-73
2023/07/22 09:11:59;;;;;;;;;;;;;;;17.35;100.00;101363.84;5033445;28;20011;-73
2023/07/22 09:14:25;;;;;;;;;;;;;;;17.43;100.00;101371.06;5033034;28;20270;-75
2023/07/22 09:16:50;;;;;;;;;;;;;;;17.52;100.00;101364.63;5033117;28;20402;-73
2023/07/22 09:19:16;;;;;;;;;;;;;;;17.48;100.00;101366.03;5033794;28;20011;-73
2023/07/22 09:21:42;;;;;;;;;;;;;;;17.33;100.00;101365.03;5033028;28;19917;-74
2023/07/22 09:24:20;;;;;;;;;;;;;;;17.08;100.00;101368.59;5015068;28;19917;-74
2023/07/22 09:26:45;;;;;;;;;;;;;;;16.80;100.00;101376.09;5033009;28;19959;-75
2023/07/22 09:29:10;;;;;;;;;;;;;;;16.51;100.00;101387.31;5032293;28;19964;-74
2023/07/22 09:31:47;;;;;;;;;;;;;;;16.21;100.00;101390.44;5032421;28;19917;-74
2023/07/22 09:34:13;;;;;;;;;;;;;;;15.90;100.00;101400.03;5031840;28;19913;-73
2023/07/22 09:36:50;;;;;;;;;;;;;;;15.48;100.00;101393.56;5032573;28;20320;-73
2023/07/22 09:39:15;;;;;;;;;;;;;;;15.22;100.00;101415.00;5032732;28;19983;-73
2023/07/22 09:41:41;;;;;;;;;;;;;;;14.95;100.00;101408.75;5032359;28;19987;-74
2023/07/22 09:44:09;;;;;;;;;;;;;;;14.74;100.00;101417.09;5032265;28;19916;-73
2023/07/22 09:46:34;;;;;;;;;;;;;;;14.51;100.00;101409.47;5032361;28;19927;-73
2023/07/22 09:49:02;;;;;;;;;;;;;;;14.32;100.00;101410.44;5032594;28;20224;-73
2023/07/22 09:51:32;;;;;;;;;;;;;;;14.20;100.00;101398.25;5032261;28;19913;-74
2023/07/22 09:54:01;;;;;;;;;;;;;;;14.08;100.00;101397.59;5032576;28;19939;-74
2023/07/22 09:56:27;;;;;;;;;;;;;;;14.01;100.00;101400.00;5032351;28;20039;-74
2023/07/22 09:58:52;;;;;;;;;;;;;;;13.97;100.00;101406.63;5032319;28;20329;-73
2023/07/22 10:01:19;;;;;;;;;;;;;;;13.98;100.00;101402.97;5031893;28;19927;-79
2023/07/22 10:03:46;;;;;;;;;;;;;;;14.01;100.00;101404.53;5032070;28;19913;-74
2023/07/22 10:06:11;;;;;;;;;;;;;;;14.03;100.00;101399.88;5032213;28;19917;-76
2023/07/22 10:08:37;;;;;;;;;;;;;;;14.04;100.00;101399.72;5032239;28;19940;-77
2023/07/22 10:11:05;;;;;;;;;;;;;;;14.11;100.00;101397.31;5032165;28;19926;-73
2023/07/22 10:13:32;;;;;;;;;;;;;;;14.28;100.00;101401.00;5031961;28;19936;-73
2023/07/22 10:15:58;;;;;;;;;;;;;;;14.51;100.00;101417.50;5031777;28;20055;-74
2023/07/22 10:18:24;;;;;;;;;;;;;;;14.72;100.00;101411.03;5032009;28;19968;-74
2023/07/22 10:20:49;;;;;;;;;;;;;;;14.91;100.00;101404.69;5031280;28;19965;-74
2023/07/22 10:23:15;;;;;;;;;;;;;;;15.10;100.00;101412.56;5031876;28;19917;-75
2023/07/22 10:25:42;;;;;;;;;;;;;;;15.29;100.00;101408.03;5032168;28;20242;-75
2023/07/22 10:28:07;;;;;;;;;;;;;;;15.55;100.00;101404.50;5031619;28;19959;-74
2023/07/22 10:30:33;;;;;;;;;;;;;;;15.91;100.00;101391.81;5031689;28;19921;-75
2023/07/22 10:32:58;;;;;;;;;;;;;;;16.25;100.00;101400.84;5013770;28;20281;-75
2023/07/22 10:35:29;;;;;;;;;;;;;;;16.49;100.00;101397.38;5031416;28;19921;-74
2023/07/22 10:37:54;;;;;;;;;;;;;;;16.77;100.00;101397.94;5013409;28;19917;-75
2023/07/22 10:40:29;;;;;;;;;;;;;;;17.12;100.00;101390.56;5031298;28;20050;-76
2023/07/22 10:42:58;;;;;;;;;;;;;;;17.47;100.00;101395.78;5030991;28;20004;-74
2023/07/22 10:45:25;;;;;;;;;;;;;;;17.83;100.00;101406.94;5031228;28;20320;-74
2023/07/22 10:48:01;;;;;;;;;;;;;;;17.97;100.00;101402.72;5031426;28;19924;-75
2023/07/22 10:50:37;;;;;;;;;;;;;;;18.01;100.00;101395.97;5032006;28;19917;-74
2023/07/22 10:53:03;;;;;;;;;;;;;;;18.10;100.00;101399.47;5031101;28;19920;-74
2023/07/22 10:55:28;;;;;;;;;;;;;;;18.18;100.00;101401.28;5031972;28;19913;-74
2023/07/22 10:57:55;;;;;;;;;;;;;;;18.56;100.00;101402.25;5031703;28;19928;-75
2023/07/22 11:00:21;;;;;;;;;;;;;;;19.07;100.00;101390.13;5031113;28;20324;-74
2023/07/22 11:02:48;;;;;;;;;;;;;;;19.41;100.00;101388.78;5032214;28;20012;-74
2023/07/22 11:05:15;;;;;;;;;;;;;;;19.72;100.00;101385.91;5031645;28;19917;-74
2023/07/22 11:07:45;;;;;;;;;;;;;;;20.18;100.00;101379.47;5031422;28;19928;-74
2023/07/22 11:10:17;;;;;;;;;;;;;;;21.10;100.00;101377.94;5031583;28;19913;-75
2023/07/22 11:12:44;;;;;;;;;;;;;;;22.11;100.00;101382.09;5031257;28;19920;-74
2023/07/22 11:15:09;;;;;;;;;;;;;;;22.15;100.00;101381.50;5031188;28;19913;-75
2023/07/22 11:17:35;;;;;;;;;;;;;;;21.56;100.00;101373.94;5012948;28;19917;-76
2023/07/22 11:20:01;;;;;;;;;;;;;;;21.06;100.00;101376.66;5031093;28;20376;-76
2023/07/22 11:22:29;;;;;;;;;;;;;;;20.92;100.00;101375.72;5031454;28;19932;-74
2023/07/22 11:24:54;;;;;;;;;;;;;;;20.25;100.00;101385.81;5030646;28;20268;-76
2023/07/22 11:27:20;;;;;;;;;;;;;;;19.54;100.00;101381.75;5031240;28;19931;-75
2023/07/22 11:29:45;;;;;;;;;;;;;;;18.98;100.00;101383.97;5031220;28;20328;-76
2023/07/22 11:32:16;;;;;;;;;;;;;;;18.59;100.00;101387.59;5030537;28;20277;-77
2023/07/22 11:34:41;;;;;;;;;;;;;;;18.39;100.00;101384.50;5030886;28;19959;-75
2023/07/22 11:37:06;;;;;;;;;;;;;;;18.37;100.00;101381.16;5012878;28;19964;-77
2023/07/22 11:39:32;;;;;;;;;;;;;;;18.48;100.00;101381.59;5030709;28;20437;-75
2023/07/22 11:41:59;;;;;;;;;;;;;;;18.34;100.00;101382.34;5030813;28;19936;-76
2023/07/22 11:44:27;;;;;;;;;;;;;;;18.20;100.00;101380.38;5030505;28;20004;-75
2023/07/22 11:46:54;;;;;;;;;;;;;;;18.09;100.00;101379.78;5030456;28;20074;-74
2023/07/22 11:49:48;;;;;;;;;;;;;;;17.96;100.00;101368.75;5030597;28;20011;-75
2023/07/22 11:52:17;;;;;;;;;;;;;;;18.01;100.00;101368.22;5017046;28;19959;-74
2023/07/22 11:54:44;;;;;;;;;;;;;;;18.19;100.00;101362.56;5030953;28;19917;-76
2023/07/22 11:57:15;;;;;;;;;;;;;;;18.39;100.00;101371.03;5030667;28;20333;-75
2023/07/22 11:59:48;;;;;;;;;;;;;;;18.53;100.00;101389.13;5034592;28;19950;-75
2023/07/22 12:02:17;;;;;;;;;;;;;;;18.40;100.00;101370.84;5034654;28;19913;-76
2023/07/22 12:04:43;;;;;;;;;;;;;;;18.31;100.00;101369.22;5017265;28;19913;-75
2023/07/22 12:07:29;;;;;;;;;;;;;;;18.19;100.00;101366.09;5016450;28;19924;-77
2023/07/22 12:09:55;;;;;;;;;;;;;;;18.00;100.00;101370.06;5034407;28;20011;-75
2023/07/22 12:12:20;;;;;;;;;;;;;;;17.94;100.00;101366.22;5015933;28;20261;-77
2023/07/22 12:14:45;;;;;;;;;;;;;;;17.94;100.00;101368.06;5016895;28;19912;-77
2023/07/22 12:17:11;;;;;;;;;;;;;;;17.88;100.00;101369.56;5034301;28;19939;-77
2023/07/22 12:19:36;;;;;;;;;;;;;;;17.97;100.00;101363.19;5034218;28;19920;-76
2023/07/22 12:22:02;;;;;;;;;;;;;;;18.08;100.00;101375.41;5034199;28;19913;-76